sensor_id;sensor_type;location;lat;lon;timestamp;P1;durP1;ratioP1;P2;durP2;ratioP2
21386;SDS011;10854;45.922;6.716;2023-05-29T00:00:02;8.63;;;7.50;;
21386;SDS011;10854;45.922;6.716;2023-05-29T00:02:34;7.63;;;6.73;;
21386;SDS011;10854;45.922;6.716;2023-05-29T00:05:03;10.13;;;7.20;;
21386;SDS011;10854;45.922;6.716;2023-05-29T00:07:33;10.27;;;7.23;;
21386;SDS011;10854;45.922;6.716;2023-05-29T00:10:01;12.43;;;7.67;;
21386;SDS011;10854;45.922;6.716;2023-05-29T00:12:30;8.30;;;6.97;;
21386;SDS011;10854;45.922;6.716;2023-05-29T00:14:58;10.50;;;7.20;;
21386;SDS011;10854;45.922;6.716;2023-05-29T00:17:27;14.30;;;7.47;;
21386;SDS011;10854;45.922;6.716;2023-05-29T00:19:56;9.20;;;7.33;;
21386;SDS011;10854;45.922;6.716;2023-05-29T00:22:24;8.37;;;7.03;;
21386;SDS011;10854;45.922;6.716;2023-05-29T00:24:53;8.87;;;7.20;;
21386;SDS011;10854;45.922;6.716;2023-05-29T00:27:22;10.60;;;7.27;;
21386;SDS011;10854;45.922;6.716;2023-05-29T00:29:51;8.20;;;6.83;;
21386;SDS011;10854;45.922;6.716;2023-05-29T00:32:20;10.77;;;6.90;;
21386;SDS011;10854;45.922;6.716;2023-05-29T00:34:49;10.93;;;7.10;;
21386;SDS011;10854;45.922;6.716;2023-05-29T00:37:18;9.20;;;7.17;;
21386;SDS011;10854;45.922;6.716;2023-05-29T00:39:50;8.27;;;7.33;;
21386;SDS011;10854;45.922;6.716;2023-05-29T00:42:19;12.23;;;7.20;;
21386;SDS011;10854;45.922;6.716;2023-05-29T00:44:47;7.80;;;6.63;;
21386;SDS011;10854;45.922;6.716;2023-05-29T00:47:16;10.13;;;7.53;;
21386;SDS011;10854;45.922;6.716;2023-05-29T00:49:44;7.60;;;6.67;;
21386;SDS011;10854;45.922;6.716;2023-05-29T00:52:13;10.93;;;7.17;;
21386;SDS011;10854;45.922;6.716;2023-05-29T00:54:44;9.03;;;7.07;;
21386;SDS011;10854;45.922;6.716;2023-05-29T00:57:13;6.80;;;6.13;;
21386;SDS011;10854;45.922;6.716;2023-05-29T00:59:44;9.57;;;7.17;;
21386;SDS011;10854;45.922;6.716;2023-05-29T01:02:14;8.20;;;6.20;;
21386;SDS011;10854;45.922;6.716;2023-05-29T01:04:45;9.07;;;7.00;;
21386;SDS011;10854;45.922;6.716;2023-05-29T01:07:14;8.93;;;6.43;;
21386;SDS011;10854;45.922;6.716;2023-05-29T01:09:43;8.80;;;6.53;;
21386;SDS011;10854;45.922;6.716;2023-05-29T01:12:27;7.50;;;6.30;;
21386;SDS011;10854;45.922;6.716;2023-05-29T01:15:16;7.87;;;6.83;;
21386;SDS011;10854;45.922;6.716;2023-05-29T01:20:48;7.90;;;7.10;;
21386;SDS011;10854;45.922;6.716;2023-05-29T01:23:53;9.67;;;6.80;;
21386;SDS011;10854;45.922;6.716;2023-05-29T01:26:37;9.03;;;6.80;;
21386;SDS011;10854;45.922;6.716;2023-05-29T01:29:20;10.73;;;6.77;;
21386;SDS011;10854;45.922;6.716;2023-05-29T01:31:52;12.37;;;7.10;;
21386;SDS011;10854;45.922;6.716;2023-05-29T01:34:21;7.57;;;6.77;;
21386;SDS011;10854;45.922;6.716;2023-05-29T01:36:51;10.03;;;6.83;;
21386;SDS011;10854;45.922;6.716;2023-05-29T01:39:19;8.17;;;7.10;;
21386;SDS011;10854;45.922;6.716;2023-05-29T01:41:50;10.37;;;7.40;;
21386;SDS011;10854;45.922;6.716;2023-05-29T01:44:18;9.33;;;7.73;;
21386;SDS011;10854;45.922;6.716;2023-05-29T01:46:48;12.40;;;7.70;;
21386;SDS011;10854;45.922;6.716;2023-05-29T01:49:17;10.57;;;6.90;;
21386;SDS011;10854;45.922;6.716;2023-05-29T01:51:46;8.77;;;7.27;;
21386;SDS011;10854;45.922;6.716;2023-05-29T01:54:14;7.93;;;7.13;;
21386;SDS011;10854;45.922;6.716;2023-05-29T01:56:44;9.93;;;7.57;;
21386;SDS011;10854;45.922;6.716;2023-05-29T01:59:13;10.07;;;8.10;;
21386;SDS011;10854;45.922;6.716;2023-05-29T02:01:42;10.63;;;8.03;;
21386;SDS011;10854;45.922;6.716;2023-05-29T02:04:10;9.47;;;7.40;;
21386;SDS011;10854;45.922;6.716;2023-05-29T02:06:39;11.67;;;7.73;;
21386;SDS011;10854;45.922;6.716;2023-05-29T02:09:07;9.70;;;7.63;;
21386;SDS011;10854;45.922;6.716;2023-05-29T02:11:35;13.93;;;7.10;;
21386;SDS011;10854;45.922;6.716;2023-05-29T02:14:04;8.67;;;7.77;;
21386;SDS011;10854;45.922;6.716;2023-05-29T02:16:33;8.57;;;7.43;;
21386;SDS011;10854;45.922;6.716;2023-05-29T02:19:01;11.03;;;8.10;;
21386;SDS011;10854;45.922;6.716;2023-05-29T02:21:30;10.13;;;7.40;;
21386;SDS011;10854;45.922;6.716;2023-05-29T02:23:59;9.27;;;7.67;;
21386;SDS011;10854;45.922;6.716;2023-05-29T02:26:27;9.50;;;7.77;;
21386;SDS011;10854;45.922;6.716;2023-05-29T02:28:56;11.37;;;7.60;;
21386;SDS011;10854;45.922;6.716;2023-05-29T02:31:24;12.93;;;7.40;;
21386;SDS011;10854;45.922;6.716;2023-05-29T02:33:52;8.80;;;7.03;;
21386;SDS011;10854;45.922;6.716;2023-05-29T02:36:21;12.40;;;7.47;;
21386;SDS011;10854;45.922;6.716;2023-05-29T02:38:49;10.60;;;7.73;;
21386;SDS011;10854;45.922;6.716;2023-05-29T02:41:18;16.00;;;7.47;;
21386;SDS011;10854;45.922;6.716;2023-05-29T02:43:48;11.30;;;7.83;;
21386;SDS011;10854;45.922;6.716;2023-05-29T02:46:17;9.27;;;7.70;;
21386;SDS011;10854;45.922;6.716;2023-05-29T02:48:47;8.33;;;7.20;;
21386;SDS011;10854;45.922;6.716;2023-05-29T02:51:16;13.03;;;7.40;;
21386;SDS011;10854;45.922;6.716;2023-05-29T02:53:44;10.23;;;7.40;;
21386;SDS011;10854;45.922;6.716;2023-05-29T02:56:12;10.07;;;7.77;;
21386;SDS011;10854;45.922;6.716;2023-05-29T02:58:42;11.00;;;7.87;;
21386;SDS011;10854;45.922;6.716;2023-05-29T03:01:11;8.57;;;7.63;;
21386;SDS011;10854;45.922;6.716;2023-05-29T03:03:39;10.33;;;7.70;;
21386;SDS011;10854;45.922;6.716;2023-05-29T03:06:08;9.43;;;7.53;;
21386;SDS011;10854;45.922;6.716;2023-05-29T03:08:37;10.13;;;7.87;;
21386;SDS011;10854;45.922;6.716;2023-05-29T03:11:08;12.97;;;7.87;;
21386;SDS011;10854;45.922;6.716;2023-05-29T03:13:39;9.63;;;7.77;;
21386;SDS011;10854;45.922;6.716;2023-05-29T03:16:08;11.10;;;8.33;;
21386;SDS011;10854;45.922;6.716;2023-05-29T03:18:36;11.47;;;8.60;;
21386;SDS011;10854;45.922;6.716;2023-05-29T03:21:05;10.37;;;8.13;;
21386;SDS011;10854;45.922;6.716;2023-05-29T03:23:40;9.20;;;7.37;;
21386;SDS011;10854;45.922;6.716;2023-05-29T03:26:08;10.10;;;8.10;;
21386;SDS011;10854;45.922;6.716;2023-05-29T03:28:38;9.20;;;7.67;;
21386;SDS011;10854;45.922;6.716;2023-05-29T03:31:06;8.07;;;7.27;;
21386;SDS011;10854;45.922;6.716;2023-05-29T03:33:35;9.00;;;7.13;;
21386;SDS011;10854;45.922;6.716;2023-05-29T03:36:04;8.17;;;6.93;;
21386;SDS011;10854;45.922;6.716;2023-05-29T03:38:33;8.80;;;6.20;;
21386;SDS011;10854;45.922;6.716;2023-05-29T03:41:02;9.87;;;6.40;;
21386;SDS011;10854;45.922;6.716;2023-05-29T03:43:30;9.83;;;7.23;;
21386;SDS011;10854;45.922;6.716;2023-05-29T03:45:59;9.83;;;7.13;;
21386;SDS011;10854;45.922;6.716;2023-05-29T03:48:27;10.27;;;6.97;;
21386;SDS011;10854;45.922;6.716;2023-05-29T03:50:55;9.13;;;7.67;;
21386;SDS011;10854;45.922;6.716;2023-05-29T03:53:24;8.67;;;7.53;;
21386;SDS011;10854;45.922;6.716;2023-05-29T03:55:52;8.87;;;7.77;;
21386;SDS011;10854;45.922;6.716;2023-05-29T03:58:21;7.30;;;6.60;;
21386;SDS011;10854;45.922;6.716;2023-05-29T04:00:49;8.23;;;6.70;;
21386;SDS011;10854;45.922;6.716;2023-05-29T04:03:17;10.60;;;7.33;;
21386;SDS011;10854;45.922;6.716;2023-05-29T04:05:46;8.70;;;7.10;;
21386;SDS011;10854;45.922;6.716;2023-05-29T04:08:14;9.10;;;7.40;;
21386;SDS011;10854;45.922;6.716;2023-05-29T04:10:43;9.47;;;7.50;;
21386;SDS011;10854;45.922;6.716;2023-05-29T04:13:11;11.10;;;8.17;;
21386;SDS011;10854;45.922;6.716;2023-05-29T04:15:40;8.90;;;8.00;;
21386;SDS011;10854;45.922;6.716;2023-05-29T04:18:09;9.50;;;7.73;;
21386;SDS011;10854;45.922;6.716;2023-05-29T04:20:37;8.83;;;7.90;;
21386;SDS011;10854;45.922;6.716;2023-05-29T04:23:06;9.70;;;7.50;;
21386;SDS011;10854;45.922;6.716;2023-05-29T04:25:35;9.67;;;7.70;;
21386;SDS011;10854;45.922;6.716;2023-05-29T04:28:03;10.80;;;7.50;;
21386;SDS011;10854;45.922;6.716;2023-05-29T04:30:32;10.47;;;7.47;;
21386;SDS011;10854;45.922;6.716;2023-05-29T04:33:01;8.40;;;7.47;;
21386;SDS011;10854;45.922;6.716;2023-05-29T04:35:30;10.57;;;7.70;;
21386;SDS011;10854;45.922;6.716;2023-05-29T04:37:59;8.97;;;8.07;;
21386;SDS011;10854;45.922;6.716;2023-05-29T04:40:28;10.03;;;7.40;;
21386;SDS011;10854;45.922;6.716;2023-05-29T04:42:56;13.00;;;7.30;;
21386;SDS011;10854;45.922;6.716;2023-05-29T04:45:27;8.90;;;7.47;;
21386;SDS011;10854;45.922;6.716;2023-05-29T04:47:56;7.33;;;6.40;;
21386;SDS011;10854;45.922;6.716;2023-05-29T04:50:25;8.77;;;7.13;;
21386;SDS011;10854;45.922;6.716;2023-05-29T04:52:57;9.43;;;6.60;;
21386;SDS011;10854;45.922;6.716;2023-05-29T04:55:25;7.60;;;6.80;;
21386;SDS011;10854;45.922;6.716;2023-05-29T04:57:57;9.80;;;7.30;;
21386;SDS011;10854;45.922;6.716;2023-05-29T05:00:25;9.83;;;7.23;;
21386;SDS011;10854;45.922;6.716;2023-05-29T05:02:54;9.93;;;7.30;;
21386;SDS011;10854;45.922;6.716;2023-05-29T05:05:22;10.10;;;7.30;;
21386;SDS011;10854;45.922;6.716;2023-05-29T05:07:51;10.63;;;6.90;;
21386;SDS011;10854;45.922;6.716;2023-05-29T05:10:19;11.10;;;7.30;;
21386;SDS011;10854;45.922;6.716;2023-05-29T05:12:48;11.87;;;7.13;;
21386;SDS011;10854;45.922;6.716;2023-05-29T05:15:16;8.53;;;6.30;;
21386;SDS011;10854;45.922;6.716;2023-05-29T05:17:44;12.30;;;6.57;;
21386;SDS011;10854;45.922;6.716;2023-05-29T05:20:14;7.87;;;6.07;;
21386;SDS011;10854;45.922;6.716;2023-05-29T05:22:42;7.63;;;5.77;;
21386;SDS011;10854;45.922;6.716;2023-05-29T05:25:10;7.93;;;6.00;;
21386;SDS011;10854;45.922;6.716;2023-05-29T05:27:39;8.93;;;5.90;;
21386;SDS011;10854;45.922;6.716;2023-05-29T05:30:07;9.10;;;6.30;;
21386;SDS011;10854;45.922;6.716;2023-05-29T05:32:36;6.73;;;6.03;;
21386;SDS011;10854;45.922;6.716;2023-05-29T05:35:05;8.80;;;5.97;;
21386;SDS011;10854;45.922;6.716;2023-05-29T05:37:35;16.77;;;6.03;;
21386;SDS011;10854;45.922;6.716;2023-05-29T05:40:04;7.63;;;6.23;;
21386;SDS011;10854;45.922;6.716;2023-05-29T05:42:34;9.73;;;6.20;;
21386;SDS011;10854;45.922;6.716;2023-05-29T05:45:03;11.73;;;6.53;;
21386;SDS011;10854;45.922;6.716;2023-05-29T05:47:33;7.73;;;6.27;;
21386;SDS011;10854;45.922;6.716;2023-05-29T05:50:03;9.53;;;6.20;;
21386;SDS011;10854;45.922;6.716;2023-05-29T05:52:33;9.07;;;6.33;;
21386;SDS011;10854;45.922;6.716;2023-05-29T05:55:01;8.67;;;6.40;;
21386;SDS011;10854;45.922;6.716;2023-05-29T05:57:31;7.77;;;6.27;;
21386;SDS011;10854;45.922;6.716;2023-05-29T06:00:03;8.17;;;6.33;;
21386;SDS011;10854;45.922;6.716;2023-05-29T06:02:40;8.27;;;5.57;;
21386;SDS011;10854;45.922;6.716;2023-05-29T06:05:10;7.57;;;5.20;;
21386;SDS011;10854;45.922;6.716;2023-05-29T06:07:39;8.43;;;6.17;;
21386;SDS011;10854;45.922;6.716;2023-05-29T06:10:07;6.63;;;5.90;;
21386;SDS011;10854;45.922;6.716;2023-05-29T06:12:36;9.00;;;6.40;;
21386;SDS011;10854;45.922;6.716;2023-05-29T06:15:05;8.37;;;5.93;;
21386;SDS011;10854;45.922;6.716;2023-05-29T06:17:34;9.60;;;5.93;;
21386;SDS011;10854;45.922;6.716;2023-05-29T06:20:03;7.73;;;6.23;;
21386;SDS011;10854;45.922;6.716;2023-05-29T06:22:37;8.73;;;5.73;;
21386;SDS011;10854;45.922;6.716;2023-05-29T06:25:06;7.30;;;5.63;;
21386;SDS011;10854;45.922;6.716;2023-05-29T06:27:35;6.30;;;5.60;;
21386;SDS011;10854;45.922;6.716;2023-05-29T06:30:04;6.33;;;5.43;;
21386;SDS011;10854;45.922;6.716;2023-05-29T06:32:33;8.00;;;5.80;;
21386;SDS011;10854;45.922;6.716;2023-05-29T06:35:01;6.87;;;5.90;;
21386;SDS011;10854;45.922;6.716;2023-05-29T06:37:29;7.97;;;6.07;;
21386;SDS011;10854;45.922;6.716;2023-05-29T06:39:58;6.47;;;5.22;;
21386;SDS011;10854;45.922;6.716;2023-05-29T06:42:26;6.93;;;5.75;;
21386;SDS011;10854;45.922;6.716;2023-05-29T06:44:55;7.50;;;5.90;;
21386;SDS011;10854;45.922;6.716;2023-05-29T06:47:23;8.35;;;5.78;;
21386;SDS011;10854;45.922;6.716;2023-05-29T06:49:53;7.22;;;5.60;;
21386;SDS011;10854;45.922;6.716;2023-05-29T06:52:21;6.03;;;5.45;;
21386;SDS011;10854;45.922;6.716;2023-05-29T06:54:49;6.22;;;5.20;;
21386;SDS011;10854;45.922;6.716;2023-05-29T06:57:18;6.85;;;4.95;;
21386;SDS011;10854;45.922;6.716;2023-05-29T06:59:46;6.05;;;5.35;;
21386;SDS011;10854;45.922;6.716;2023-05-29T07:02:15;6.32;;;5.65;;
21386;SDS011;10854;45.922;6.716;2023-05-29T07:04:43;6.80;;;5.25;;
21386;SDS011;10854;45.922;6.716;2023-05-29T07:07:12;6.63;;;5.72;;
21386;SDS011;10854;45.922;6.716;2023-05-29T07:09:40;6.60;;;5.50;;
21386;SDS011;10854;45.922;6.716;2023-05-29T07:12:10;8.60;;;6.00;;
21386;SDS011;10854;45.922;6.716;2023-05-29T07:14:38;6.53;;;5.22;;
21386;SDS011;10854;45.922;6.716;2023-05-29T07:17:06;6.40;;;5.43;;
21386;SDS011;10854;45.922;6.716;2023-05-29T07:19:35;6.63;;;5.93;;
21386;SDS011;10854;45.922;6.716;2023-05-29T07:22:03;7.57;;;5.90;;
21386;SDS011;10854;45.922;6.716;2023-05-29T07:24:32;6.78;;;5.68;;
21386;SDS011;10854;45.922;6.716;2023-05-29T07:27:02;6.95;;;5.45;;
21386;SDS011;10854;45.922;6.716;2023-05-29T07:29:30;6.50;;;5.88;;
21386;SDS011;10854;45.922;6.716;2023-05-29T07:31:59;7.93;;;5.68;;
21386;SDS011;10854;45.922;6.716;2023-05-29T07:34:27;6.55;;;5.53;;
21386;SDS011;10854;45.922;6.716;2023-05-29T07:36:57;6.97;;;5.55;;
21386;SDS011;10854;45.922;6.716;2023-05-29T07:39:28;6.82;;;5.65;;
21386;SDS011;10854;45.922;6.716;2023-05-29T07:41:56;7.95;;;5.30;;
21386;SDS011;10854;45.922;6.716;2023-05-29T07:44:25;6.28;;;5.63;;
21386;SDS011;10854;45.922;6.716;2023-05-29T07:46:53;6.47;;;5.68;;
21386;SDS011;10854;45.922;6.716;2023-05-29T07:49:22;6.78;;;5.32;;
21386;SDS011;10854;45.922;6.716;2023-05-29T07:51:51;7.05;;;5.70;;
21386;SDS011;10854;45.922;6.716;2023-05-29T07:54:20;6.53;;;5.75;;
21386;SDS011;10854;45.922;6.716;2023-05-29T07:56:49;6.07;;;5.35;;
21386;SDS011;10854;45.922;6.716;2023-05-29T07:59:18;6.63;;;5.90;;
21386;SDS011;10854;45.922;6.716;2023-05-29T08:01:46;6.35;;;5.25;;
21386;SDS011;10854;45.922;6.716;2023-05-29T08:04:15;6.13;;;5.35;;
21386;SDS011;10854;45.922;6.716;2023-05-29T08:06:43;6.88;;;5.63;;
21386;SDS011;10854;45.922;6.716;2023-05-29T08:09:11;7.22;;;5.90;;
21386;SDS011;10854;45.922;6.716;2023-05-29T08:11:41;7.72;;;5.25;;
21386;SDS011;10854;45.922;6.716;2023-05-29T08:14:10;6.28;;;5.68;;
21386;SDS011;10854;45.922;6.716;2023-05-29T08:16:39;6.15;;;5.53;;
21386;SDS011;10854;45.922;6.716;2023-05-29T08:19:08;6.88;;;5.32;;
21386;SDS011;10854;45.922;6.716;2023-05-29T08:21:36;6.88;;;5.80;;
21386;SDS011;10854;45.922;6.716;2023-05-29T08:24:05;7.00;;;5.60;;
21386;SDS011;10854;45.922;6.716;2023-05-29T08:26:34;5.90;;;5.30;;
21386;SDS011;10854;45.922;6.716;2023-05-29T08:29:03;6.63;;;5.88;;
21386;SDS011;10854;45.922;6.716;2023-05-29T08:31:32;6.60;;;5.88;;
21386;SDS011;10854;45.922;6.716;2023-05-29T08:34:00;5.97;;;5.38;;
21386;SDS011;10854;45.922;6.716;2023-05-29T08:36:29;7.88;;;5.80;;
21386;SDS011;10854;45.922;6.716;2023-05-29T08:38:58;6.80;;;5.65;;
21386;SDS011;10854;45.922;6.716;2023-05-29T08:44:10;6.65;;;5.95;;
21386;SDS011;10854;45.922;6.716;2023-05-29T08:46:44;7.60;;;6.00;;
21386;SDS011;10854;45.922;6.716;2023-05-29T08:49:14;7.22;;;5.88;;
21386;SDS011;10854;45.922;6.716;2023-05-29T08:51:46;8.50;;;5.90;;
21386;SDS011;10854;45.922;6.716;2023-05-29T08:54:18;8.18;;;6.00;;
21386;SDS011;10854;45.922;6.716;2023-05-29T08:56:47;7.85;;;5.68;;
21386;SDS011;10854;45.922;6.716;2023-05-29T08:59:17;9.02;;;5.82;;
21386;SDS011;10854;45.922;6.716;2023-05-29T09:01:46;7.40;;;5.82;;
21386;SDS011;10854;45.922;6.716;2023-05-29T09:04:15;5.95;;;5.35;;
21386;SDS011;10854;45.922;6.716;2023-05-29T09:06:44;8.02;;;5.70;;
21386;SDS011;10854;45.922;6.716;2023-05-29T09:09:14;7.95;;;6.50;;
21386;SDS011;10854;45.922;6.716;2023-05-29T09:11:43;6.60;;;5.45;;
21386;SDS011;10854;45.922;6.716;2023-05-29T09:17:03;7.15;;;5.40;;
21386;SDS011;10854;45.922;6.716;2023-05-29T09:19:35;7.15;;;5.50;;
21386;SDS011;10854;45.922;6.716;2023-05-29T09:22:06;6.20;;;5.15;;
21386;SDS011;10854;45.922;6.716;2023-05-29T09:24:37;7.25;;;5.38;;
21386;SDS011;10854;45.922;6.716;2023-05-29T09:27:06;7.05;;;5.57;;
21386;SDS011;10854;45.922;6.716;2023-05-29T09:29:39;6.25;;;5.65;;
21386;SDS011;10854;45.922;6.716;2023-05-29T09:32:09;7.60;;;5.43;;
21386;SDS011;10854;45.922;6.716;2023-05-29T09:34:38;6.03;;;5.50;;
21386;SDS011;10854;45.922;6.716;2023-05-29T09:37:07;6.53;;;5.72;;
21386;SDS011;10854;45.922;6.716;2023-05-29T09:39:49;6.68;;;6.03;;
21386;SDS011;10854;45.922;6.716;2023-05-29T09:42:21;7.25;;;5.78;;
21386;SDS011;10854;45.922;6.716;2023-05-29T09:44:50;6.50;;;5.90;;
21386;SDS011;10854;45.922;6.716;2023-05-29T09:47:21;7.72;;;5.43;;
21386;SDS011;10854;45.922;6.716;2023-05-29T09:49:49;8.57;;;6.20;;
21386;SDS011;10854;45.922;6.716;2023-05-29T09:52:21;8.40;;;5.97;;
21386;SDS011;10854;45.922;6.716;2023-05-29T09:54:49;6.13;;;5.50;;
21386;SDS011;10854;45.922;6.716;2023-05-29T09:57:18;6.70;;;5.78;;
21386;SDS011;10854;45.922;6.716;2023-05-29T09:59:50;6.30;;;5.40;;
21386;SDS011;10854;45.922;6.716;2023-05-29T10:02:21;6.50;;;5.90;;
21386;SDS011;10854;45.922;6.716;2023-05-29T10:04:49;6.43;;;5.78;;
21386;SDS011;10854;45.922;6.716;2023-05-29T10:09:53;8.02;;;6.43;;
21386;SDS011;10854;45.922;6.716;2023-05-29T10:12:37;7.85;;;5.90;;
21386;SDS011;10854;45.922;6.716;2023-05-29T10:15:14;5.70;;;5.10;;
21386;SDS011;10854;45.922;6.716;2023-05-29T10:20:20;6.78;;;5.93;;
21386;SDS011;10854;45.922;6.716;2023-05-29T10:22:51;9.52;;;6.03;;
21386;SDS011;10854;45.922;6.716;2023-05-29T10:25:22;6.53;;;5.93;;
21386;SDS011;10854;45.922;6.716;2023-05-29T10:27:53;6.25;;;5.65;;
21386;SDS011;10854;45.922;6.716;2023-05-29T10:30:33;6.57;;;5.97;;
21386;SDS011;10854;45.922;6.716;2023-05-29T10:35:47;6.63;;;5.95;;
21386;SDS011;10854;45.922;6.716;2023-05-29T10:38:36;7.55;;;5.90;;
21386;SDS011;10854;45.922;6.716;2023-05-29T10:43:55;6.82;;;6.22;;
21386;SDS011;10854;45.922;6.716;2023-05-29T10:49:19;6.10;;;5.50;;
21386;SDS011;10854;45.922;6.716;2023-05-29T10:51:49;7.75;;;5.90;;
21386;SDS011;10854;45.922;6.716;2023-05-29T10:54:24;6.85;;;6.15;;
21386;SDS011;10854;45.922;6.716;2023-05-29T10:56:58;6.90;;;5.95;;
21386;SDS011;10854;45.922;6.716;2023-05-29T10:59:28;6.43;;;5.82;;
21386;SDS011;10854;45.922;6.716;2023-05-29T11:02:04;7.22;;;6.03;;
21386;SDS011;10854;45.922;6.716;2023-05-29T11:04:33;6.53;;;5.82;;
21386;SDS011;10854;45.922;6.716;2023-05-29T11:07:04;6.95;;;5.53;;
21386;SDS011;10854;45.922;6.716;2023-05-29T11:09:36;6.03;;;5.47;;
21386;SDS011;10854;45.922;6.716;2023-05-29T11:23:00;6.65;;;6.03;;
21386;SDS011;10854;45.922;6.716;2023-05-29T11:25:32;7.72;;;5.90;;
21386;SDS011;10854;45.922;6.716;2023-05-29T11:28:03;6.93;;;6.22;;
21386;SDS011;10854;45.922;6.716;2023-05-29T11:30:45;6.20;;;5.47;;
21386;SDS011;10854;45.922;6.716;2023-05-29T11:33:19;7.13;;;6.38;;
21386;SDS011;10854;45.922;6.716;2023-05-29T11:35:58;6.18;;;5.57;;
21386;SDS011;10854;45.922;6.716;2023-05-29T11:38:27;7.03;;;5.82;;
21386;SDS011;10854;45.922;6.716;2023-05-29T11:40:57;6.78;;;5.80;;
21386;SDS011;10854;45.922;6.716;2023-05-29T11:43:26;6.47;;;5.78;;
21386;SDS011;10854;45.922;6.716;2023-05-29T11:45:55;6.18;;;5.55;;
21386;SDS011;10854;45.922;6.716;2023-05-29T11:48:23;7.38;;;6.15;;
21386;SDS011;10854;45.922;6.716;2023-05-29T11:50:55;6.22;;;5.63;;
21386;SDS011;10854;45.922;6.716;2023-05-29T11:53:25;7.45;;;5.53;;
21386;SDS011;10854;45.922;6.716;2023-05-29T11:56:05;5.65;;;5.00;;
21386;SDS011;10854;45.922;6.716;2023-05-29T11:58:39;5.93;;;5.03;;
21386;SDS011;10854;45.922;6.716;2023-05-29T12:01:09;5.90;;;5.28;;
21386;SDS011;10854;45.922;6.716;2023-05-29T12:03:41;7.40;;;5.57;;
21386;SDS011;10854;45.922;6.716;2023-05-29T12:06:10;7.35;;;5.63;;
21386;SDS011;10854;45.922;6.716;2023-05-29T12:08:38;6.05;;;5.45;;
21386;SDS011;10854;45.922;6.716;2023-05-29T12:11:08;6.68;;;5.55;;
21386;SDS011;10854;45.922;6.716;2023-05-29T12:13:36;7.05;;;5.57;;
21386;SDS011;10854;45.922;6.716;2023-05-29T12:16:05;5.85;;;5.18;;
21386;SDS011;10854;45.922;6.716;2023-05-29T12:18:34;6.40;;;5.60;;
21386;SDS011;10854;45.922;6.716;2023-05-29T12:21:03;5.60;;;5.05;;
21386;SDS011;10854;45.922;6.716;2023-05-29T12:23:32;7.75;;;5.35;;
21386;SDS011;10854;45.922;6.716;2023-05-29T12:26:01;7.13;;;5.57;;
21386;SDS011;10854;45.922;6.716;2023-05-29T12:28:29;6.40;;;5.80;;
21386;SDS011;10854;45.922;6.716;2023-05-29T12:30:58;5.75;;;5.18;;
21386;SDS011;10854;45.922;6.716;2023-05-29T12:33:33;5.70;;;5.00;;
21386;SDS011;10854;45.922;6.716;2023-05-29T12:36:05;5.63;;;5.13;;
21386;SDS011;10854;45.922;6.716;2023-05-29T12:38:48;6.70;;;4.95;;
21386;SDS011;10854;45.922;6.716;2023-05-29T12:41:22;7.03;;;5.47;;
21386;SDS011;10854;45.922;6.716;2023-05-29T12:43:56;5.95;;;5.13;;
21386;SDS011;10854;45.922;6.716;2023-05-29T12:46:25;5.70;;;5.05;;
21386;SDS011;10854;45.922;6.716;2023-05-29T12:48:54;5.85;;;4.93;;
21386;SDS011;10854;45.922;6.716;2023-05-29T12:51:24;5.30;;;4.80;;
21386;SDS011;10854;45.922;6.716;2023-05-29T12:53:54;5.95;;;4.72;;
21386;SDS011;10854;45.922;6.716;2023-05-29T12:56:24;6.75;;;5.28;;
21386;SDS011;10854;45.922;6.716;2023-05-29T12:58:53;5.30;;;4.80;;
21386;SDS011;10854;45.922;6.716;2023-05-29T13:01:22;5.72;;;5.20;;
21386;SDS011;10854;45.922;6.716;2023-05-29T13:03:51;5.72;;;5.20;;
21386;SDS011;10854;45.922;6.716;2023-05-29T13:06:20;5.30;;;4.80;;
21386;SDS011;10854;45.922;6.716;2023-05-29T13:08:48;5.82;;;5.22;;
21386;SDS011;10854;45.922;6.716;2023-05-29T13:11:16;6.20;;;4.88;;
21386;SDS011;10854;45.922;6.716;2023-05-29T13:13:45;5.82;;;4.95;;
21386;SDS011;10854;45.922;6.716;2023-05-29T13:16:15;6.45;;;5.10;;
21386;SDS011;10854;45.922;6.716;2023-05-29T13:18:45;5.75;;;5.15;;
21386;SDS011;10854;45.922;6.716;2023-05-29T13:21:14;5.50;;;5.00;;
21386;SDS011;10854;45.922;6.716;2023-05-29T13:23:43;5.60;;;5.10;;
21386;SDS011;10854;45.922;6.716;2023-05-29T13:26:11;6.63;;;5.10;;
21386;SDS011;10854;45.922;6.716;2023-05-29T13:28:40;5.45;;;4.95;;
21386;SDS011;10854;45.922;6.716;2023-05-29T13:31:10;6.18;;;4.90;;
21386;SDS011;10854;45.922;6.716;2023-05-29T13:33:39;6.60;;;5.50;;
21386;SDS011;10854;45.922;6.716;2023-05-29T13:36:07;7.20;;;5.10;;
21386;SDS011;10854;45.922;6.716;2023-05-29T13:38:35;6.32;;;5.70;;
21386;SDS011;10854;45.922;6.716;2023-05-29T13:41:04;6.70;;;5.57;;
21386;SDS011;10854;45.922;6.716;2023-05-29T13:43:33;5.95;;;5.38;;
21386;SDS011;10854;45.922;6.716;2023-05-29T13:46:08;5.40;;;4.90;;
21386;SDS011;10854;45.922;6.716;2023-05-29T13:48:37;10.07;;;5.95;;
21386;SDS011;10854;45.922;6.716;2023-05-29T13:51:06;8.10;;;5.82;;
21386;SDS011;10854;45.922;6.716;2023-05-29T13:53:34;31.80;;;7.43;;
21386;SDS011;10854;45.922;6.716;2023-05-29T13:56:03;6.10;;;5.50;;
21386;SDS011;10854;45.922;6.716;2023-05-29T13:58:31;7.32;;;5.63;;
21386;SDS011;10854;45.922;6.716;2023-05-29T14:00:59;7.43;;;5.30;;
21386;SDS011;10854;45.922;6.716;2023-05-29T14:03:28;5.50;;;5.00;;
21386;SDS011;10854;45.922;6.716;2023-05-29T14:05:57;7.43;;;5.25;;
21386;SDS011;10854;45.922;6.716;2023-05-29T14:08:25;6.20;;;5.45;;
21386;SDS011;10854;45.922;6.716;2023-05-29T14:10:54;6.45;;;5.60;;
21386;SDS011;10854;45.922;6.716;2023-05-29T14:13:22;7.88;;;5.38;;
21386;SDS011;10854;45.922;6.716;2023-05-29T14:15:50;6.80;;;6.10;;
21386;SDS011;10854;45.922;6.716;2023-05-29T14:18:19;5.38;;;4.80;;
21386;SDS011;10854;45.922;6.716;2023-05-29T14:20:49;5.53;;;5.03;;
21386;SDS011;10854;45.922;6.716;2023-05-29T14:23:17;6.43;;;5.35;;
21386;SDS011;10854;45.922;6.716;2023-05-29T14:25:45;6.10;;;4.90;;
21386;SDS011;10854;45.922;6.716;2023-05-29T14:28:14;5.53;;;5.03;;
21386;SDS011;10854;45.922;6.716;2023-05-29T14:30:43;7.15;;;5.38;;
21386;SDS011;10854;45.922;6.716;2023-05-29T14:33:12;6.30;;;5.03;;
21386;SDS011;10854;45.922;6.716;2023-05-29T14:35:40;7.63;;;5.63;;
21386;SDS011;10854;45.922;6.716;2023-05-29T14:38:09;9.15;;;5.43;;
21386;SDS011;10854;45.922;6.716;2023-05-29T14:40:37;7.30;;;5.78;;
21386;SDS011;10854;45.922;6.716;2023-05-29T14:43:06;6.50;;;5.80;;
21386;SDS011;10854;45.922;6.716;2023-05-29T14:45:34;7.93;;;5.90;;
21386;SDS011;10854;45.922;6.716;2023-05-29T14:48:03;10.35;;;6.40;;
21386;SDS011;10854;45.922;6.716;2023-05-29T14:50:32;9.35;;;6.20;;
21386;SDS011;10854;45.922;6.716;2023-05-29T14:53:00;6.88;;;6.03;;
21386;SDS011;10854;45.922;6.716;2023-05-29T14:55:29;6.93;;;6.25;;
21386;SDS011;10854;45.922;6.716;2023-05-29T14:58:05;11.98;;;7.38;;
21386;SDS011;10854;45.922;6.716;2023-05-29T15:00:33;8.50;;;5.95;;
21386;SDS011;10854;45.922;6.716;2023-05-29T15:03:02;10.90;;;6.53;;
21386;SDS011;10854;45.922;6.716;2023-05-29T15:05:30;6.70;;;6.00;;
21386;SDS011;10854;45.922;6.716;2023-05-29T15:07:58;11.27;;;6.13;;
21386;SDS011;10854;45.922;6.716;2023-05-29T15:10:27;11.10;;;5.82;;
21386;SDS011;10854;45.922;6.716;2023-05-29T15:12:56;9.95;;;6.10;;
21386;SDS011;10854;45.922;6.716;2023-05-29T15:15:24;8.50;;;5.93;;
21386;SDS011;10854;45.922;6.716;2023-05-29T15:17:59;9.85;;;6.07;;
21386;SDS011;10854;45.922;6.716;2023-05-29T15:20:28;8.77;;;5.88;;
21386;SDS011;10854;45.922;6.716;2023-05-29T15:22:57;7.63;;;5.53;;
21386;SDS011;10854;45.922;6.716;2023-05-29T15:25:25;7.68;;;5.68;;
21386;SDS011;10854;45.922;6.716;2023-05-29T15:27:53;8.60;;;5.80;;
21386;SDS011;10854;45.922;6.716;2023-05-29T15:30:23;6.57;;;5.97;;
21386;SDS011;10854;45.922;6.716;2023-05-29T15:32:51;8.52;;;5.55;;